createdAt,value
2023-04-02T00:03:59.869Z,10.25
2023-04-02T00:09:13.890Z,10.12
2023-04-02T00:14:23.022Z,11.84
2023-04-02T00:19:42.205Z,9.66
2023-04-02T00:24:44.005Z,10.96
2023-04-02T00:29:50.751Z,10.59
2023-04-02T00:34:52.806Z,10.78
2023-04-02T00:40:15.444Z,10.32
2023-04-02T00:45:26.016Z,9.29
2023-04-02T00:50:35.903Z,11.21
2023-04-02T00:55:41.723Z,10.81
2023-04-02T01:00:50.308Z,10.48
2023-04-02T01:06:01.686Z,12.35
2023-04-02T01:11:09.382Z,12.33
2023-04-02T01:16:39.489Z,10.83
2023-04-02T01:21:57.289Z,11.35
2023-04-02T01:27:05.456Z,11.04
2023-04-02T01:32:11.548Z,10.70
2023-04-02T01:37:34.924Z,10.77
2023-04-02T01:42:39.374Z,10.24
2023-04-02T01:47:42.950Z,11.08
2023-04-02T01:52:46.975Z,11.48
2023-04-02T01:57:52.127Z,10.97
2023-04-02T02:02:54.264Z,13.86
2023-04-02T02:07:58.443Z,9.92
2023-04-02T02:13:01.376Z,12.87
2023-04-02T02:18:06.620Z,12.58
2023-04-02T02:23:11.095Z,12.18
2023-04-02T02:28:12.771Z,11.18
2023-04-02T02:33:41.894Z,13.28
2023-04-02T02:39:02.380Z,9.56
2023-04-02T02:44:16.436Z,12.47
2023-04-02T02:49:26.169Z,11.97
2023-04-02T02:54:30.679Z,12.62
2023-04-02T02:59:32.776Z,11.87
2023-04-02T03:04:35.915Z,10.84
2023-04-02T03:09:57.636Z,12.25
2023-04-02T03:15:20.714Z,12.75
2023-04-02T03:20:55.708Z,12.67
2023-04-02T03:26:24.932Z,11.50
2023-04-02T03:31:33.851Z,10.30
2023-04-02T03:36:46.687Z,12.31
2023-04-02T03:41:50.800Z,11.57
2023-04-02T03:47:01.553Z,11.05
2023-04-02T03:52:11.931Z,11.22
2023-04-02T03:57:31.856Z,10.56
2023-04-02T04:02:38.909Z,11.17
2023-04-02T04:07:43.647Z,11.54
2023-04-02T04:12:50.681Z,8.93
2023-04-02T04:18:35.107Z,10.32
2023-04-02T04:23:41.162Z,12.42
2023-04-02T04:29:05.711Z,11.22
2023-04-02T04:34:23.159Z,11.57
2023-04-02T04:39:47.385Z,13.18
2023-04-02T04:44:59.891Z,11.01
2023-04-02T04:50:05.672Z,12.72
2023-04-02T04:55:31.161Z,12.51
2023-04-02T05:00:59.845Z,11.94
2023-04-02T05:06:09.498Z,12.33
2023-04-02T05:11:19.747Z,11.04
2023-04-02T05:16:31.426Z,12.31
2023-04-02T05:22:16.372Z,11.07
2023-04-02T05:27:27.534Z,11.51
2023-04-02T05:32:34.706Z,10.89
2023-04-02T05:37:39.850Z,12.27
2023-04-02T05:42:47.469Z,11.00
2023-04-02T05:47:52.355Z,11.49
2023-04-02T05:53:06.629Z,11.15
2023-04-02T05:58:39.182Z,10.35
2023-04-02T06:03:46.878Z,11.73
2023-04-02T06:09:00.113Z,10.95
2023-04-02T06:14:03.605Z,12.60
2023-04-02T06:19:17.465Z,11.81
2023-04-02T06:24:25.465Z,11.58
2023-04-02T06:29:31.809Z,11.52
2023-04-02T06:34:36.686Z,13.21
2023-04-02T06:39:38.362Z,12.21
2023-04-02T06:44:40.540Z,13.75
2023-04-02T06:50:04.052Z,13.98
2023-04-02T06:55:20.790Z,11.57
2023-04-02T07:00:44.416Z,13.80
2023-04-02T07:05:46.200Z,13.28
2023-04-02T07:10:47.887Z,10.38
2023-04-02T07:15:52.524Z,13.32
2023-04-02T07:20:54.718Z,12.10
2023-04-02T07:25:57.737Z,12.22
2023-04-02T07:30:59.596Z,12.51
2023-04-02T07:36:01.625Z,13.20
2023-04-02T07:41:07.109Z,13.63
2023-04-02T07:46:09.855Z,14.96
2023-04-02T07:51:20.327Z,14.39
2023-04-02T07:56:23.850Z,13.05
2023-04-02T08:01:27.353Z,11.71
2023-04-02T08:06:29.330Z,12.48
2023-04-02T08:11:31.795Z,11.13
2023-04-02T08:16:47.665Z,14.03
2023-04-02T08:21:51.702Z,13.48
2023-04-02T08:26:53.691Z,13.63
2023-04-02T08:31:55.293Z,12.60
2023-04-02T08:36:58.738Z,13.65
2023-04-02T08:42:18.979Z,12.25
2023-04-02T08:47:26.014Z,14.12
2023-04-02T08:52:32.765Z,13.26
2023-04-02T08:57:47.536Z,14.78
2023-04-02T09:02:57.652Z,13.03
2023-04-02T09:08:02.994Z,12.35
2023-04-02T09:13:16.870Z,14.48
2023-04-02T09:18:19.627Z,12.84
2023-04-02T09:23:24.387Z,14.53
2023-04-02T09:28:27.205Z,13.37
2023-04-02T09:33:47.088Z,13.33
2023-04-02T09:39:07.148Z,13.86
2023-04-02T09:44:23.810Z,14.73
2023-04-02T09:49:28.710Z,14.17
2023-04-02T09:54:30.382Z,13.75
2023-04-02T09:59:32.049Z,13.61
2023-04-02T10:04:49.719Z,14.91
2023-04-02T10:10:17.885Z,15.34
2023-04-02T10:15:26.344Z,15.85
2023-04-02T10:20:32.112Z,14.99
2023-04-02T10:25:42.427Z,14.70
2023-04-02T10:31:00.032Z,15.86
2023-04-02T10:36:23.242Z,17.24
2023-04-02T10:41:37.104Z,16.44
2023-04-02T10:47:00.173Z,15.70
2023-04-02T10:52:21.271Z,13.85
2023-04-02T10:57:39.518Z,15.78
2023-04-02T11:06:44.090Z,10.25
2023-04-02T11:11:51.379Z,10.76
2023-04-02T11:16:55.358Z,9.19
2023-04-02T11:22:16.203Z,9.94
2023-04-02T11:27:17.706Z,10.60
2023-04-02T11:32:22.343Z,9.34
2023-04-02T11:37:36.023Z,9.60
2023-04-02T11:42:42.788Z,10.60
2023-04-02T11:48:13.306Z,10.79
2023-04-02T11:53:15.021Z,10.21
2023-04-02T11:58:46.111Z,12.38
2023-04-02T12:04:21.477Z,10.28
2023-04-02T12:09:27.226Z,11.17
2023-04-02T12:14:59.526Z,12.03
2023-04-02T12:20:20.605Z,13.41
2023-04-02T12:25:40.350Z,11.92
2023-04-02T12:30:42.126Z,12.33
2023-04-02T12:35:45.317Z,13.02
2023-04-02T12:40:57.668Z,14.30
2023-04-02T12:46:08.168Z,11.59
2023-04-02T12:51:11.181Z,10.76
2023-04-02T12:56:19.735Z,10.20
2023-04-02T13:01:23.924Z,11.16
2023-04-02T13:06:27.088Z,10.18
2023-04-02T13:11:40.403Z,9.40
2023-04-02T13:16:42.241Z,11.06
2023-04-02T13:21:46.610Z,9.95
2023-04-02T13:26:49.828Z,10.53
2023-04-02T13:31:53.544Z,9.88
2023-04-02T13:36:55.493Z,10.37
2023-04-02T13:41:58.511Z,10.57
2023-04-02T13:47:00.719Z,9.54
2023-04-02T13:52:05.012Z,10.06
2023-04-02T13:57:07.482Z,9.64
2023-04-02T14:02:16.094Z,9.70
2023-04-02T14:07:47.749Z,9.80
2023-04-02T14:13:08.271Z,9.67
2023-04-02T14:18:48.153Z,10.34
2023-04-02T14:23:49.778Z,8.89
2023-04-02T14:28:51.311Z,10.09
2023-04-02T14:34:19.251Z,9.26
2023-04-02T14:39:49.445Z,9.76
2023-04-02T14:45:02.350Z,8.92
2023-04-02T14:50:13.553Z,8.75
2023-04-02T14:55:26.749Z,8.10
2023-04-02T15:00:41.993Z,9.43
2023-04-02T15:05:54.688Z,8.84
2023-04-02T15:11:02.887Z,8.98
2023-04-02T15:16:10.213Z,9.19
2023-04-02T15:21:19.175Z,9.68
2023-04-02T15:26:33.037Z,9.49
2023-04-02T15:31:35.917Z,7.88
2023-04-02T15:37:04.132Z,9.02
2023-04-02T15:42:05.996Z,7.36
2023-04-02T15:47:28.316Z,8.92
2023-04-02T15:52:47.876Z,7.11
2023-04-02T15:58:23.498Z,8.10
2023-04-02T16:03:33.769Z,7.27
2023-04-02T16:08:57.204Z,7.15
2023-04-02T16:14:22.681Z,7.05
2023-04-02T16:19:40.003Z,8.46
2023-04-02T16:24:43.054Z,8.67
2023-04-02T16:30:29.058Z,8.00
2023-04-02T16:35:51.159Z,8.74
2023-04-02T16:41:14.591Z,7.33
2023-04-02T16:46:38.181Z,8.28
2023-04-02T16:52:01.164Z,8.08
2023-04-02T16:57:36.057Z,8.10
2023-04-02T17:03:02.349Z,7.13
2023-04-02T17:08:37.205Z,9.42
2023-04-02T17:13:55.070Z,7.72
2023-04-02T17:18:59.888Z,7.86
2023-04-02T17:24:14.247Z,7.60
2023-04-02T17:29:38.161Z,7.29
2023-04-02T17:34:39.757Z,7.73
2023-04-02T17:39:59.962Z,6.95
2023-04-02T17:45:10.508Z,7.13
2023-04-02T17:50:15.291Z,7.25
2023-04-02T17:55:40.640Z,6.60
2023-04-02T18:00:45.610Z,6.62
2023-04-02T18:05:59.947Z,6.69
2023-04-02T18:11:16.904Z,6.68
2023-04-02T18:16:26.059Z,7.33
2023-04-02T18:21:33.085Z,6.89
2023-04-02T18:27:11.461Z,7.49
2023-04-02T18:32:29.198Z,6.59
2023-04-02T18:38:15.095Z,6.69
2023-04-02T18:43:37.835Z,6.63
2023-04-02T18:49:01.160Z,6.65
2023-04-02T18:54:08.605Z,7.17
2023-04-02T18:59:19.323Z,6.22
2023-04-02T19:04:29.099Z,8.21
2023-04-02T19:09:41.162Z,6.57
2023-04-02T19:14:42.848Z,5.98
2023-04-02T19:20:11.011Z,7.84
2023-04-02T19:25:56.279Z,7.18
2023-04-02T19:31:36.903Z,7.38
2023-04-02T19:36:47.351Z,7.42
2023-04-02T19:42:00.992Z,7.94
2023-04-02T19:47:02.761Z,7.50
2023-04-02T19:52:04.727Z,7.98
2023-04-02T19:57:06.454Z,6.96
2023-04-02T20:02:10.469Z,7.12
2023-04-02T20:07:12.075Z,6.45
2023-04-02T20:12:13.721Z,6.75
2023-04-02T20:17:15.535Z,7.27
2023-04-02T20:22:19.127Z,6.28
2023-04-02T20:27:20.875Z,6.87
2023-04-02T20:32:22.724Z,6.60
2023-04-02T20:37:24.602Z,7.44
2023-04-02T20:42:26.447Z,7.88
2023-04-02T20:47:29.105Z,7.68
2023-04-02T20:52:33.213Z,6.76
2023-04-02T20:57:35.115Z,6.35
2023-04-02T21:02:36.803Z,6.44
2023-04-02T21:07:38.514Z,6.95
2023-04-02T21:12:40.145Z,6.49
2023-04-02T21:17:41.807Z,5.33
2023-04-02T21:22:43.628Z,5.85
2023-04-02T21:27:45.328Z,5.83
2023-04-02T21:32:47.000Z,6.07
2023-04-02T21:37:48.664Z,6.43
2023-04-02T21:42:50.484Z,6.66
2023-04-02T21:47:52.072Z,6.46
2023-04-02T21:52:53.845Z,4.39
2023-04-02T21:57:55.509Z,6.66
2023-04-02T22:02:57.166Z,5.53
2023-04-02T22:07:58.766Z,5.76
2023-04-02T22:13:00.308Z,4.88
2023-04-02T22:18:02.000Z,7.07
2023-04-02T22:23:03.647Z,5.30
2023-04-02T22:28:05.647Z,6.80
2023-04-02T22:33:07.284Z,7.24
2023-04-02T22:38:09.232Z,6.90
2023-04-02T22:43:10.799Z,7.05
2023-04-02T22:48:12.433Z,6.86
2023-04-02T22:53:15.250Z,7.40
2023-04-02T22:58:16.866Z,6.77
2023-04-02T23:03:18.912Z,5.67
2023-04-02T23:08:20.790Z,7.54
2023-04-02T23:13:22.340Z,7.58
2023-04-02T23:18:25.063Z,7.64
2023-04-02T23:23:27.346Z,7.07
2023-04-02T23:28:28.937Z,9.53
2023-04-02T23:33:30.943Z,6.06
2023-04-02T23:38:32.522Z,6.06
2023-04-02T23:43:34.200Z,6.87
2023-04-02T23:48:35.817Z,5.99
2023-04-02T23:53:37.576Z,6.89
2023-04-02T23:58:39.139Z,7.70
